sensor_id;sensor_type;location;lat;lon;timestamp;temperature;humidity
14614;DHT22;7393;51.446;6.800;2023-06-22T00:00:04;23.40;99.90
14614;DHT22;7393;51.446;6.800;2023-06-22T00:02:36;23.30;99.90
14614;DHT22;7393;51.446;6.800;2023-06-22T00:05:03;23.30;99.90
14614;DHT22;7393;51.446;6.800;2023-06-22T00:07:30;23.30;99.90
14614;DHT22;7393;51.446;6.800;2023-06-22T00:09:57;23.30;99.90
14614;DHT22;7393;51.446;6.800;2023-06-22T00:12:23;23.30;99.90
14614;DHT22;7393;51.446;6.800;2023-06-22T00:14:51;23.30;99.90
14614;DHT22;7393;51.446;6.800;2023-06-22T00:17:18;23.20;99.90
14614;DHT22;7393;51.446;6.800;2023-06-22T00:19:47;23.20;99.90
14614;DHT22;7393;51.446;6.800;2023-06-22T00:22:18;23.20;99.90
14614;DHT22;7393;51.446;6.800;2023-06-22T00:24:53;23.20;99.90
14614;DHT22;7393;51.446;6.800;2023-06-22T00:27:20;23.10;99.90
14614;DHT22;7393;51.446;6.800;2023-06-22T00:29:47;23.10;99.90
14614;DHT22;7393;51.446;6.800;2023-06-22T00:32:15;23.20;99.90
14614;DHT22;7393;51.446;6.800;2023-06-22T00:34:42;23.10;99.90
14614;DHT22;7393;51.446;6.800;2023-06-22T00:37:09;23.10;99.90
14614;DHT22;7393;51.446;6.800;2023-06-22T00:39:36;23.10;99.90
14614;DHT22;7393;51.446;6.800;2023-06-22T00:42:04;23.10;99.90
14614;DHT22;7393;51.446;6.800;2023-06-22T00:44:31;23.10;99.90
14614;DHT22;7393;51.446;6.800;2023-06-22T00:46:58;23.00;99.90
14614;DHT22;7393;51.446;6.800;2023-06-22T00:49:27;23.00;99.90
14614;DHT22;7393;51.446;6.800;2023-06-22T00:51:54;23.10;99.90
14614;DHT22;7393;51.446;6.800;2023-06-22T00:54:21;23.00;99.90
14614;DHT22;7393;51.446;6.800;2023-06-22T00:56:50;23.00;99.90
14614;DHT22;7393;51.446;6.800;2023-06-22T00:59:18;23.00;99.90
14614;DHT22;7393;51.446;6.800;2023-06-22T01:01:45;23.00;99.90
14614;DHT22;7393;51.446;6.800;2023-06-22T01:04:12;22.90;99.90
14614;DHT22;7393;51.446;6.800;2023-06-22T01:06:47;22.90;99.90
14614;DHT22;7393;51.446;6.800;2023-06-22T01:09:28;22.90;99.90
14614;DHT22;7393;51.446;6.800;2023-06-22T01:12:02;22.90;99.90
14614;DHT22;7393;51.446;6.800;2023-06-22T01:14:37;22.90;99.90
14614;DHT22;7393;51.446;6.800;2023-06-22T01:17:05;22.90;99.90
14614;DHT22;7393;51.446;6.800;2023-06-22T01:19:39;22.80;99.90
14614;DHT22;7393;51.446;6.800;2023-06-22T01:22:10;22.80;99.90
14614;DHT22;7393;51.446;6.800;2023-06-22T01:24:48;22.70;99.90
14614;DHT22;7393;51.446;6.800;2023-06-22T01:27:24;22.70;99.90
14614;DHT22;7393;51.446;6.800;2023-06-22T01:29:57;22.70;99.90
14614;DHT22;7393;51.446;6.800;2023-06-22T01:32:26;22.70;99.90
14614;DHT22;7393;51.446;6.800;2023-06-22T01:34:54;22.70;99.90
14614;DHT22;7393;51.446;6.800;2023-06-22T01:37:21;22.70;99.90
14614;DHT22;7393;51.446;6.800;2023-06-22T01:39:48;22.70;99.90
14614;DHT22;7393;51.446;6.800;2023-06-22T01:42:16;22.60;99.90
14614;DHT22;7393;51.446;6.800;2023-06-22T01:44:43;22.60;99.90
14614;DHT22;7393;51.446;6.800;2023-06-22T01:47:11;22.40;99.90
14614;DHT22;7393;51.446;6.800;2023-06-22T01:49:40;22.40;99.90
14614;DHT22;7393;51.446;6.800;2023-06-22T01:52:07;22.40;99.90
14614;DHT22;7393;51.446;6.800;2023-06-22T01:54:34;22.40;99.90
14614;DHT22;7393;51.446;6.800;2023-06-22T01:57:01;22.40;99.90
14614;DHT22;7393;51.446;6.800;2023-06-22T01:59:32;22.40;99.90
14614;DHT22;7393;51.446;6.800;2023-06-22T02:02:04;22.40;99.90
14614;DHT22;7393;51.446;6.800;2023-06-22T02:04:36;22.20;99.90
14614;DHT22;7393;51.446;6.800;2023-06-22T02:07:09;22.20;99.90
14614;DHT22;7393;51.446;6.800;2023-06-22T02:09:39;22.20;99.90
14614;DHT22;7393;51.446;6.800;2023-06-22T02:12:08;22.20;99.90
14614;DHT22;7393;51.446;6.800;2023-06-22T02:14:37;22.20;99.90
14614;DHT22;7393;51.446;6.800;2023-06-22T02:17:07;22.20;99.90
14614;DHT22;7393;51.446;6.800;2023-06-22T02:19:37;22.20;99.90
14614;DHT22;7393;51.446;6.800;2023-06-22T02:22:04;22.30;99.90
14614;DHT22;7393;51.446;6.800;2023-06-22T02:24:31;22.20;99.90
14614;DHT22;7393;51.446;6.800;2023-06-22T02:26:59;22.30;99.90
14614;DHT22;7393;51.446;6.800;2023-06-22T02:29:26;22.20;99.90
14614;DHT22;7393;51.446;6.800;2023-06-22T02:31:53;22.20;99.90
14614;DHT22;7393;51.446;6.800;2023-06-22T02:34:21;22.20;99.90
14614;DHT22;7393;51.446;6.800;2023-06-22T02:36:50;22.10;1.00
14614;DHT22;7393;51.446;6.800;2023-06-22T02:39:19;22.10;1.00
14614;DHT22;7393;51.446;6.800;2023-06-22T02:41:47;22.10;1.00
14614;DHT22;7393;51.446;6.800;2023-06-22T02:44:14;22.10;1.00
14614;DHT22;7393;51.446;6.800;2023-06-22T02:46:41;22.10;1.00
14614;DHT22;7393;51.446;6.800;2023-06-22T02:49:08;22.00;1.00
14614;DHT22;7393;51.446;6.800;2023-06-22T02:51:35;22.00;1.00
14614;DHT22;7393;51.446;6.800;2023-06-22T02:54:03;22.00;1.00
14614;DHT22;7393;51.446;6.800;2023-06-22T02:56:30;22.00;1.00
14614;DHT22;7393;51.446;6.800;2023-06-22T02:58:56;22.00;1.00
14614;DHT22;7393;51.446;6.800;2023-06-22T03:01:26;22.00;1.00
14614;DHT22;7393;51.446;6.800;2023-06-22T03:03:53;22.00;1.00
14614;DHT22;7393;51.446;6.800;2023-06-22T03:06:20;22.00;1.00
14614;DHT22;7393;51.446;6.800;2023-06-22T03:08:48;21.90;1.00
14614;DHT22;7393;51.446;6.800;2023-06-22T03:11:17;21.90;1.00
14614;DHT22;7393;51.446;6.800;2023-06-22T03:13:43;21.90;1.00
14614;DHT22;7393;51.446;6.800;2023-06-22T03:16:12;21.90;1.00
14614;DHT22;7393;51.446;6.800;2023-06-22T03:18:38;21.90;1.00
14614;DHT22;7393;51.446;6.800;2023-06-22T03:21:05;21.90;1.00
14614;DHT22;7393;51.446;6.800;2023-06-22T03:23:32;21.90;1.00
14614;DHT22;7393;51.446;6.800;2023-06-22T03:25:59;21.90;1.00
14614;DHT22;7393;51.446;6.800;2023-06-22T03:28:27;21.80;1.00
14614;DHT22;7393;51.446;6.800;2023-06-22T03:30:54;21.80;1.00
14614;DHT22;7393;51.446;6.800;2023-06-22T03:33:21;21.80;1.00
14614;DHT22;7393;51.446;6.800;2023-06-22T03:35:47;21.70;1.00
14614;DHT22;7393;51.446;6.800;2023-06-22T03:38:15;21.70;1.00
14614;DHT22;7393;51.446;6.800;2023-06-22T03:40:42;21.70;1.00
14614;DHT22;7393;51.446;6.800;2023-06-22T03:43:09;21.60;1.00
14614;DHT22;7393;51.446;6.800;2023-06-22T03:45:37;21.70;1.00
14614;DHT22;7393;51.446;6.800;2023-06-22T03:48:05;21.60;1.00
14614;DHT22;7393;51.446;6.800;2023-06-22T03:50:32;21.60;13.20
14614;DHT22;7393;51.446;6.800;2023-06-22T03:52:59;21.60;99.90
14614;DHT22;7393;51.446;6.800;2023-06-22T03:55:26;21.60;99.90
14614;DHT22;7393;51.446;6.800;2023-06-22T03:57:54;21.60;99.90
14614;DHT22;7393;51.446;6.800;2023-06-22T04:00:22;21.60;99.90
14614;DHT22;7393;51.446;6.800;2023-06-22T04:02:50;21.60;99.90
14614;DHT22;7393;51.446;6.800;2023-06-22T04:05:17;21.50;99.90
14614;DHT22;7393;51.446;6.800;2023-06-22T04:07:44;21.50;99.90
14614;DHT22;7393;51.446;6.800;2023-06-22T04:10:11;21.60;99.90
14614;DHT22;7393;51.446;6.800;2023-06-22T04:12:38;21.60;99.90
14614;DHT22;7393;51.446;6.800;2023-06-22T04:15:06;21.60;99.90
14614;DHT22;7393;51.446;6.800;2023-06-22T04:17:32;21.60;1.00
14614;DHT22;7393;51.446;6.800;2023-06-22T04:20:01;21.60;1.00
14614;DHT22;7393;51.446;6.800;2023-06-22T04:22:29;21.60;1.00
14614;DHT22;7393;51.446;6.800;2023-06-22T04:24:56;21.60;1.00
14614;DHT22;7393;51.446;6.800;2023-06-22T04:27:23;21.60;1.00
14614;DHT22;7393;51.446;6.800;2023-06-22T04:29:50;21.60;1.00
14614;DHT22;7393;51.446;6.800;2023-06-22T04:32:17;21.70;1.00
14614;DHT22;7393;51.446;6.800;2023-06-22T04:34:44;21.60;1.00
14614;DHT22;7393;51.446;6.800;2023-06-22T04:37:12;21.70;1.00
14614;DHT22;7393;51.446;6.800;2023-06-22T04:39:41;21.70;1.00
14614;DHT22;7393;51.446;6.800;2023-06-22T04:42:08;21.80;1.00
14614;DHT22;7393;51.446;6.800;2023-06-22T04:44:35;21.80;1.00
14614;DHT22;7393;51.446;6.800;2023-06-22T04:47:02;21.80;99.90
14614;DHT22;7393;51.446;6.800;2023-06-22T04:49:32;21.80;99.90
14614;DHT22;7393;51.446;6.800;2023-06-22T04:52:00;21.90;99.90
14614;DHT22;7393;51.446;6.800;2023-06-22T04:54:29;21.80;99.90
14614;DHT22;7393;51.446;6.800;2023-06-22T04:56:58;21.80;99.90
14614;DHT22;7393;51.446;6.800;2023-06-22T04:59:26;21.90;99.90
14614;DHT22;7393;51.446;6.800;2023-06-22T05:01:55;21.90;99.90
14614;DHT22;7393;51.446;6.800;2023-06-22T05:04:22;21.90;99.90
14614;DHT22;7393;51.446;6.800;2023-06-22T05:06:49;21.80;99.90
14614;DHT22;7393;51.446;6.800;2023-06-22T05:09:16;21.90;99.90
14614;DHT22;7393;51.446;6.800;2023-06-22T05:11:45;21.90;99.90
14614;DHT22;7393;51.446;6.800;2023-06-22T05:14:12;21.90;99.90
14614;DHT22;7393;51.446;6.800;2023-06-22T05:16:40;21.90;99.90
14614;DHT22;7393;51.446;6.800;2023-06-22T05:19:07;21.80;99.90
14614;DHT22;7393;51.446;6.800;2023-06-22T05:21:34;21.80;99.90
14614;DHT22;7393;51.446;6.800;2023-06-22T05:24:01;21.80;99.90
14614;DHT22;7393;51.446;6.800;2023-06-22T05:26:28;21.80;99.90
14614;DHT22;7393;51.446;6.800;2023-06-22T05:28:57;21.90;99.90
14614;DHT22;7393;51.446;6.800;2023-06-22T05:31:24;21.90;99.90
14614;DHT22;7393;51.446;6.800;2023-06-22T05:33:52;21.90;99.90
14614;DHT22;7393;51.446;6.800;2023-06-22T05:36:20;21.90;99.90
14614;DHT22;7393;51.446;6.800;2023-06-22T05:38:49;21.90;99.90
14614;DHT22;7393;51.446;6.800;2023-06-22T05:41:16;22.00;99.90
14614;DHT22;7393;51.446;6.800;2023-06-22T05:43:42;22.00;99.90
14614;DHT22;7393;51.446;6.800;2023-06-22T05:46:11;22.00;99.90
14614;DHT22;7393;51.446;6.800;2023-06-22T05:48:37;22.00;99.90
14614;DHT22;7393;51.446;6.800;2023-06-22T05:51:04;22.00;99.90
14614;DHT22;7393;51.446;6.800;2023-06-22T05:53:31;22.00;1.00
14614;DHT22;7393;51.446;6.800;2023-06-22T05:55:58;22.10;1.00
14614;DHT22;7393;51.446;6.800;2023-06-22T05:58:24;22.00;1.00
14614;DHT22;7393;51.446;6.800;2023-06-22T06:00:51;22.00;99.90
14614;DHT22;7393;51.446;6.800;2023-06-22T06:03:19;22.10;99.90
14614;DHT22;7393;51.446;6.800;2023-06-22T06:05:46;22.10;99.90
14614;DHT22;7393;51.446;6.800;2023-06-22T06:08:13;22.00;1.00
14614;DHT22;7393;51.446;6.800;2023-06-22T06:10:40;22.00;40.10
14614;DHT22;7393;51.446;6.800;2023-06-22T06:13:07;22.00;99.90
14614;DHT22;7393;51.446;6.800;2023-06-22T06:15:34;22.00;99.90
14614;DHT22;7393;51.446;6.800;2023-06-22T06:18:01;21.90;99.90
14614;DHT22;7393;51.446;6.800;2023-06-22T06:20:32;21.90;99.90
14614;DHT22;7393;51.446;6.800;2023-06-22T06:22:59;21.90;99.90
14614;DHT22;7393;51.446;6.800;2023-06-22T06:25:26;21.80;1.00
14614;DHT22;7393;51.446;6.800;2023-06-22T06:27:52;21.70;1.00
14614;DHT22;7393;51.446;6.800;2023-06-22T06:30:20;21.70;99.90
14614;DHT22;7393;51.446;6.800;2023-06-22T06:32:48;21.60;1.00
14614;DHT22;7393;51.446;6.800;2023-06-22T06:35:16;21.60;1.00
14614;DHT22;7393;51.446;6.800;2023-06-22T06:37:45;21.60;1.00
14614;DHT22;7393;51.446;6.800;2023-06-22T06:40:12;21.60;99.90
14614;DHT22;7393;51.446;6.800;2023-06-22T06:42:40;21.50;99.90
14614;DHT22;7393;51.446;6.800;2023-06-22T06:45:10;21.40;1.00
14614;DHT22;7393;51.446;6.800;2023-06-22T06:47:37;21.40;1.00
14614;DHT22;7393;51.446;6.800;2023-06-22T06:50:05;21.30;1.00
14614;DHT22;7393;51.446;6.800;2023-06-22T06:52:32;21.20;99.90
14614;DHT22;7393;51.446;6.800;2023-06-22T06:55:00;21.20;1.00
14614;DHT22;7393;51.446;6.800;2023-06-22T06:57:28;21.10;1.00
14614;DHT22;7393;51.446;6.800;2023-06-22T06:59:55;21.10;99.90
14614;DHT22;7393;51.446;6.800;2023-06-22T07:02:22;21.10;99.90
14614;DHT22;7393;51.446;6.800;2023-06-22T07:04:49;21.10;99.90
14614;DHT22;7393;51.446;6.800;2023-06-22T07:07:16;21.10;1.00
14614;DHT22;7393;51.446;6.800;2023-06-22T07:09:43;21.20;1.00
14614;DHT22;7393;51.446;6.800;2023-06-22T07:12:11;21.20;1.00
14614;DHT22;7393;51.446;6.800;2023-06-22T07:14:38;21.20;99.90
14614;DHT22;7393;51.446;6.800;2023-06-22T07:17:05;21.30;1.00
14614;DHT22;7393;51.446;6.800;2023-06-22T07:19:33;21.30;99.90
14614;DHT22;7393;51.446;6.800;2023-06-22T07:22:00;21.40;1.00
14614;DHT22;7393;51.446;6.800;2023-06-22T07:24:27;21.50;1.00
14614;DHT22;7393;51.446;6.800;2023-06-22T07:26:54;21.50;99.90
14614;DHT22;7393;51.446;6.800;2023-06-22T07:29:25;21.60;99.90
14614;DHT22;7393;51.446;6.800;2023-06-22T07:31:53;21.60;99.90
14614;DHT22;7393;51.446;6.800;2023-06-22T07:34:21;21.70;99.90
14614;DHT22;7393;51.446;6.800;2023-06-22T07:36:48;21.70;1.00
14614;DHT22;7393;51.446;6.800;2023-06-22T07:39:15;21.70;99.90
14614;DHT22;7393;51.446;6.800;2023-06-22T07:41:42;21.80;1.00
14614;DHT22;7393;51.446;6.800;2023-06-22T07:44:09;21.80;99.90
14614;DHT22;7393;51.446;6.800;2023-06-22T07:46:37;21.80;99.90
14614;DHT22;7393;51.446;6.800;2023-06-22T07:49:04;21.80;19.90
14614;DHT22;7393;51.446;6.800;2023-06-22T07:51:30;21.70;54.20
14614;DHT22;7393;51.446;6.800;2023-06-22T07:53:57;21.80;1.00
14614;DHT22;7393;51.446;6.800;2023-06-22T07:56:24;21.80;1.00
14614;DHT22;7393;51.446;6.800;2023-06-22T07:58:51;21.70;99.90
14614;DHT22;7393;51.446;6.800;2023-06-22T08:01:18;21.70;1.00
14614;DHT22;7393;51.446;6.800;2023-06-22T08:03:48;21.80;99.90
14614;DHT22;7393;51.446;6.800;2023-06-22T08:06:14;21.80;99.90
14614;DHT22;7393;51.446;6.800;2023-06-22T08:08:42;21.80;99.90
14614;DHT22;7393;51.446;6.800;2023-06-22T08:11:09;21.80;1.00
14614;DHT22;7393;51.446;6.800;2023-06-22T08:13:36;21.90;1.00
14614;DHT22;7393;51.446;6.800;2023-06-22T08:16:03;21.90;1.00
14614;DHT22;7393;51.446;6.800;2023-06-22T08:18:30;21.80;99.90
14614;DHT22;7393;51.446;6.800;2023-06-22T08:20:58;21.90;71.70
14614;DHT22;7393;51.446;6.800;2023-06-22T08:23:25;21.80;99.90
14614;DHT22;7393;51.446;6.800;2023-06-22T08:25:51;21.80;99.90
14614;DHT22;7393;51.446;6.800;2023-06-22T08:28:18;21.90;99.90
14614;DHT22;7393;51.446;6.800;2023-06-22T08:30:45;22.00;99.90
14614;DHT22;7393;51.446;6.800;2023-06-22T08:33:12;22.00;1.00
14614;DHT22;7393;51.446;6.800;2023-06-22T08:35:39;22.00;1.00
14614;DHT22;7393;51.446;6.800;2023-06-22T08:38:07;22.10;99.90
14614;DHT22;7393;51.446;6.800;2023-06-22T08:40:34;22.10;1.00
14614;DHT22;7393;51.446;6.800;2023-06-22T08:43:01;22.10;99.90
14614;DHT22;7393;51.446;6.800;2023-06-22T08:45:28;22.10;1.00
14614;DHT22;7393;51.446;6.800;2023-06-22T08:47:54;22.10;1.00
14614;DHT22;7393;51.446;6.800;2023-06-22T08:50:21;22.20;1.00
14614;DHT22;7393;51.446;6.800;2023-06-22T08:52:48;22.20;1.00
14614;DHT22;7393;51.446;6.800;2023-06-22T08:55:17;22.30;1.00
14614;DHT22;7393;51.446;6.800;2023-06-22T08:57:43;22.30;1.00
14614;DHT22;7393;51.446;6.800;2023-06-22T09:00:11;22.40;1.00
14614;DHT22;7393;51.446;6.800;2023-06-22T09:02:42;22.40;1.00
14614;DHT22;7393;51.446;6.800;2023-06-22T09:05:09;22.40;1.00
14614;DHT22;7393;51.446;6.800;2023-06-22T09:07:36;22.50;1.00
14614;DHT22;7393;51.446;6.800;2023-06-22T09:10:04;22.60;99.90
14614;DHT22;7393;51.446;6.800;2023-06-22T09:12:32;22.60;1.00
14614;DHT22;7393;51.446;6.800;2023-06-22T09:15:00;22.60;1.00
14614;DHT22;7393;51.446;6.800;2023-06-22T09:17:28;22.70;1.00
14614;DHT22;7393;51.446;6.800;2023-06-22T09:19:55;22.70;1.00
14614;DHT22;7393;51.446;6.800;2023-06-22T09:22:21;22.70;99.90
14614;DHT22;7393;51.446;6.800;2023-06-22T09:24:48;22.80;99.90
14614;DHT22;7393;51.446;6.800;2023-06-22T09:27:15;22.90;73.80
14614;DHT22;7393;51.446;6.800;2023-06-22T09:29:43;22.90;99.90
14614;DHT22;7393;51.446;6.800;2023-06-22T09:32:10;23.00;77.00
14614;DHT22;7393;51.446;6.800;2023-06-22T09:34:37;23.00;1.00
14614;DHT22;7393;51.446;6.800;2023-06-22T09:37:05;23.10;1.00
14614;DHT22;7393;51.446;6.800;2023-06-22T09:39:31;23.10;99.90
14614;DHT22;7393;51.446;6.800;2023-06-22T09:41:59;23.20;99.90
14614;DHT22;7393;51.446;6.800;2023-06-22T09:44:26;23.30;1.00
14614;DHT22;7393;51.446;6.800;2023-06-22T09:46:54;23.40;1.00
14614;DHT22;7393;51.446;6.800;2023-06-22T09:49:21;23.50;1.00
14614;DHT22;7393;51.446;6.800;2023-06-22T09:51:48;23.60;1.00
14614;DHT22;7393;51.446;6.800;2023-06-22T09:54:16;23.60;1.00
14614;DHT22;7393;51.446;6.800;2023-06-22T09:56:43;23.70;1.00
14614;DHT22;7393;51.446;6.800;2023-06-22T09:59:10;23.80;1.00
14614;DHT22;7393;51.446;6.800;2023-06-22T10:01:36;23.90;99.90
14614;DHT22;7393;51.446;6.800;2023-06-22T10:04:05;24.10;1.00
14614;DHT22;7393;51.446;6.800;2023-06-22T10:06:31;24.20;1.00
14614;DHT22;7393;51.446;6.800;2023-06-22T10:08:58;24.40;99.90
14614;DHT22;7393;51.446;6.800;2023-06-22T10:11:25;24.60;99.90
14614;DHT22;7393;51.446;6.800;2023-06-22T10:13:55;24.70;1.00
14614;DHT22;7393;51.446;6.800;2023-06-22T10:16:24;24.90;99.90
14614;DHT22;7393;51.446;6.800;2023-06-22T10:18:52;25.00;56.50
14614;DHT22;7393;51.446;6.800;2023-06-22T10:21:20;25.10;1.00
14614;DHT22;7393;51.446;6.800;2023-06-22T10:23:47;25.20;1.00
14614;DHT22;7393;51.446;6.800;2023-06-22T10:26:13;25.30;1.00
14614;DHT22;7393;51.446;6.800;2023-06-22T10:28:40;25.50;1.00
14614;DHT22;7393;51.446;6.800;2023-06-22T10:31:07;25.60;1.00
14614;DHT22;7393;51.446;6.800;2023-06-22T10:33:34;25.70;1.00
14614;DHT22;7393;51.446;6.800;2023-06-22T10:36:01;25.70;99.90
14614;DHT22;7393;51.446;6.800;2023-06-22T10:38:29;25.80;99.90
14614;DHT22;7393;51.446;6.800;2023-06-22T10:40:56;25.90;99.90
14614;DHT22;7393;51.446;6.800;2023-06-22T10:43:22;25.90;99.90
14614;DHT22;7393;51.446;6.800;2023-06-22T10:45:49;26.00;99.90
14614;DHT22;7393;51.446;6.800;2023-06-22T10:48:16;26.00;99.90
14614;DHT22;7393;51.446;6.800;2023-06-22T10:50:43;26.00;99.90
14614;DHT22;7393;51.446;6.800;2023-06-22T10:53:09;26.00;99.90
14614;DHT22;7393;51.446;6.800;2023-06-22T10:55:37;26.00;99.90
14614;DHT22;7393;51.446;6.800;2023-06-22T10:58:04;26.00;99.90
14614;DHT22;7393;51.446;6.800;2023-06-22T11:00:31;25.90;99.90
14614;DHT22;7393;51.446;6.800;2023-06-22T11:02:58;26.00;99.90
14614;DHT22;7393;51.446;6.800;2023-06-22T11:05:25;26.00;99.90
14614;DHT22;7393;51.446;6.800;2023-06-22T11:07:51;25.90;99.90
14614;DHT22;7393;51.446;6.800;2023-06-22T11:10:18;25.90;99.90
14614;DHT22;7393;51.446;6.800;2023-06-22T11:12:46;25.90;99.90
14614;DHT22;7393;51.446;6.800;2023-06-22T11:15:13;25.90;99.90
14614;DHT22;7393;51.446;6.800;2023-06-22T11:17:40;25.90;99.90
14614;DHT22;7393;51.446;6.800;2023-06-22T11:20:07;25.90;99.90
14614;DHT22;7393;51.446;6.800;2023-06-22T11:22:37;25.80;99.90
14614;DHT22;7393;51.446;6.800;2023-06-22T11:25:05;25.70;99.90
14614;DHT22;7393;51.446;6.800;2023-06-22T11:27:32;25.70;99.90
14614;DHT22;7393;51.446;6.800;2023-06-22T11:30:00;25.60;1.00
14614;DHT22;7393;51.446;6.800;2023-06-22T11:32:27;25.50;1.00
14614;DHT22;7393;51.446;6.800;2023-06-22T11:34:54;25.50;99.90
14614;DHT22;7393;51.446;6.800;2023-06-22T11:37:20;25.50;99.90
14614;DHT22;7393;51.446;6.800;2023-06-22T11:39:47;25.50;1.00
14614;DHT22;7393;51.446;6.800;2023-06-22T11:42:14;25.50;99.90
14614;DHT22;7393;51.446;6.800;2023-06-22T11:44:42;25.40;99.90
14614;DHT22;7393;51.446;6.800;2023-06-22T11:47:10;25.20;99.90
14614;DHT22;7393;51.446;6.800;2023-06-22T11:49:36;25.10;99.90
14614;DHT22;7393;51.446;6.800;2023-06-22T11:52:04;25.00;99.90
14614;DHT22;7393;51.446;6.800;2023-06-22T11:54:31;25.00;1.00
14614;DHT22;7393;51.446;6.800;2023-06-22T11:56:57;24.90;1.00
14614;DHT22;7393;51.446;6.800;2023-06-22T11:59:24;24.80;99.90
14614;DHT22;7393;51.446;6.800;2023-06-22T12:01:51;24.70;99.90
14614;DHT22;7393;51.446;6.800;2023-06-22T12:04:19;24.60;99.90
14614;DHT22;7393;51.446;6.800;2023-06-22T12:06:46;24.50;1.00
14614;DHT22;7393;51.446;6.800;2023-06-22T12:09:14;24.40;99.90
14614;DHT22;7393;51.446;6.800;2023-06-22T12:11:40;24.30;1.00
14614;DHT22;7393;51.446;6.800;2023-06-22T12:14:07;24.00;1.00
14614;DHT22;7393;51.446;6.800;2023-06-22T12:16:34;23.90;99.90
14614;DHT22;7393;51.446;6.800;2023-06-22T12:19:01;23.90;99.90
14614;DHT22;7393;51.446;6.800;2023-06-22T12:21:29;23.90;99.90
14614;DHT22;7393;51.446;6.800;2023-06-22T12:23:56;23.90;99.90
14614;DHT22;7393;51.446;6.800;2023-06-22T12:26:22;23.90;99.90
14614;DHT22;7393;51.446;6.800;2023-06-22T12:28:49;23.90;99.90
14614;DHT22;7393;51.446;6.800;2023-06-22T12:31:17;24.00;99.90
14614;DHT22;7393;51.446;6.800;2023-06-22T12:33:44;24.00;99.90
14614;DHT22;7393;51.446;6.800;2023-06-22T12:36:11;24.00;1.00
14614;DHT22;7393;51.446;6.800;2023-06-22T12:38:39;24.10;1.00
14614;DHT22;7393;51.446;6.800;2023-06-22T12:41:05;24.00;1.00
14614;DHT22;7393;51.446;6.800;2023-06-22T12:43:32;24.00;1.00
14614;DHT22;7393;51.446;6.800;2023-06-22T12:45:59;23.90;1.00
14614;DHT22;7393;51.446;6.800;2023-06-22T12:48:27;23.90;1.00
14614;DHT22;7393;51.446;6.800;2023-06-22T12:50:54;23.90;1.00
14614;DHT22;7393;51.446;6.800;2023-06-22T12:53:20;23.80;1.00
14614;DHT22;7393;51.446;6.800;2023-06-22T12:55:49;23.80;1.00
14614;DHT22;7393;51.446;6.800;2023-06-22T12:58:16;23.70;1.00
14614;DHT22;7393;51.446;6.800;2023-06-22T13:00:43;23.70;1.00
14614;DHT22;7393;51.446;6.800;2023-06-22T13:03:10;23.70;1.00
14614;DHT22;7393;51.446;6.800;2023-06-22T13:05:37;23.70;1.00
14614;DHT22;7393;51.446;6.800;2023-06-22T13:08:03;23.60;1.00
14614;DHT22;7393;51.446;6.800;2023-06-22T13:10:30;23.60;1.00
14614;DHT22;7393;51.446;6.800;2023-06-22T13:12:58;23.60;1.00
14614;DHT22;7393;51.446;6.800;2023-06-22T13:15:27;23.60;1.00
14614;DHT22;7393;51.446;6.800;2023-06-22T13:17:54;23.60;1.00
14614;DHT22;7393;51.446;6.800;2023-06-22T13:20:21;23.60;1.00
14614;DHT22;7393;51.446;6.800;2023-06-22T13:22:48;23.60;1.00
14614;DHT22;7393;51.446;6.800;2023-06-22T13:25:15;23.60;1.00
14614;DHT22;7393;51.446;6.800;2023-06-22T13:27:44;23.60;1.00
14614;DHT22;7393;51.446;6.800;2023-06-22T13:30:13;23.60;1.00
14614;DHT22;7393;51.446;6.800;2023-06-22T13:32:40;23.60;1.00
14614;DHT22;7393;51.446;6.800;2023-06-22T13:35:08;23.60;1.00
14614;DHT22;7393;51.446;6.800;2023-06-22T13:37:35;23.60;1.00
14614;DHT22;7393;51.446;6.800;2023-06-22T13:40:03;23.50;1.00
14614;DHT22;7393;51.446;6.800;2023-06-22T13:42:31;23.50;1.00
14614;DHT22;7393;51.446;6.800;2023-06-22T13:44:58;23.50;1.00
14614;DHT22;7393;51.446;6.800;2023-06-22T13:47:26;23.60;1.00
14614;DHT22;7393;51.446;6.800;2023-06-22T13:49:54;23.50;1.00
14614;DHT22;7393;51.446;6.800;2023-06-22T13:52:21;23.50;1.00
14614;DHT22;7393;51.446;6.800;2023-06-22T13:54:47;23.60;1.00
14614;DHT22;7393;51.446;6.800;2023-06-22T13:57:14;23.60;1.00
14614;DHT22;7393;51.446;6.800;2023-06-22T13:59:41;23.60;1.00
14614;DHT22;7393;51.446;6.800;2023-06-22T14:02:08;23.60;1.00
14614;DHT22;7393;51.446;6.800;2023-06-22T14:04:36;23.70;1.00
14614;DHT22;7393;51.446;6.800;2023-06-22T14:07:04;23.70;1.00
14614;DHT22;7393;51.446;6.800;2023-06-22T14:09:30;23.80;1.00
14614;DHT22;7393;51.446;6.800;2023-06-22T14:11:57;23.70;1.00
14614;DHT22;7393;51.446;6.800;2023-06-22T14:14:24;23.80;1.00
14614;DHT22;7393;51.446;6.800;2023-06-22T14:16:52;23.70;1.00
14614;DHT22;7393;51.446;6.800;2023-06-22T14:19:19;23.70;1.00
14614;DHT22;7393;51.446;6.800;2023-06-22T14:21:47;23.70;1.00
14614;DHT22;7393;51.446;6.800;2023-06-22T14:24:14;23.70;1.00
14614;DHT22;7393;51.446;6.800;2023-06-22T14:26:40;23.70;1.00
14614;DHT22;7393;51.446;6.800;2023-06-22T14:29:07;23.70;1.00
14614;DHT22;7393;51.446;6.800;2023-06-22T14:31:34;23.60;1.00
14614;DHT22;7393;51.446;6.800;2023-06-22T14:34:01;23.50;1.00
14614;DHT22;7393;51.446;6.800;2023-06-22T14:36:29;23.50;1.00
14614;DHT22;7393;51.446;6.800;2023-06-22T14:38:57;23.50;1.00
14614;DHT22;7393;51.446;6.800;2023-06-22T14:41:24;23.50;1.00
14614;DHT22;7393;51.446;6.800;2023-06-22T14:43:50;23.50;1.00
14614;DHT22;7393;51.446;6.800;2023-06-22T14:46:18;23.60;1.00
14614;DHT22;7393;51.446;6.800;2023-06-22T14:48:45;23.50;1.00
14614;DHT22;7393;51.446;6.800;2023-06-22T14:51:13;23.50;1.00
14614;DHT22;7393;51.446;6.800;2023-06-22T14:53:40;23.50;1.00
14614;DHT22;7393;51.446;6.800;2023-06-22T14:56:08;23.50;1.00
14614;DHT22;7393;51.446;6.800;2023-06-22T14:58:35;23.40;1.00
14614;DHT22;7393;51.446;6.800;2023-06-22T15:01:02;23.30;1.00
14614;DHT22;7393;51.446;6.800;2023-06-22T15:03:30;23.30;1.00
14614;DHT22;7393;51.446;6.800;2023-06-22T15:05:57;23.30;1.00
14614;DHT22;7393;51.446;6.800;2023-06-22T15:08:25;23.30;1.00
14614;DHT22;7393;51.446;6.800;2023-06-22T15:10:52;23.10;1.00
14614;DHT22;7393;51.446;6.800;2023-06-22T15:13:20;23.10;1.00
14614;DHT22;7393;51.446;6.800;2023-06-22T15:15:48;23.10;1.00
14614;DHT22;7393;51.446;6.800;2023-06-22T15:18:15;23.00;1.00
14614;DHT22;7393;51.446;6.800;2023-06-22T15:20:42;23.10;1.00
14614;DHT22;7393;51.446;6.800;2023-06-22T15:23:11;23.00;1.00
14614;DHT22;7393;51.446;6.800;2023-06-22T15:25:38;23.00;1.00
14614;DHT22;7393;51.446;6.800;2023-06-22T15:28:05;22.90;1.00
14614;DHT22;7393;51.446;6.800;2023-06-22T15:30:33;22.90;1.00
14614;DHT22;7393;51.446;6.800;2023-06-22T15:33:01;22.90;1.00
14614;DHT22;7393;51.446;6.800;2023-06-22T15:35:28;22.80;1.00
14614;DHT22;7393;51.446;6.800;2023-06-22T15:37:55;22.80;1.00
14614;DHT22;7393;51.446;6.800;2023-06-22T15:40:21;22.90;1.00
14614;DHT22;7393;51.446;6.800;2023-06-22T15:42:50;22.90;1.00
14614;DHT22;7393;51.446;6.800;2023-06-22T15:45:17;22.90;1.00
14614;DHT22;7393;51.446;6.800;2023-06-22T15:47:45;22.90;1.00
14614;DHT22;7393;51.446;6.800;2023-06-22T15:50:11;22.90;1.00
14614;DHT22;7393;51.446;6.800;2023-06-22T15:52:39;22.90;1.00
14614;DHT22;7393;51.446;6.800;2023-06-22T15:55:07;22.90;1.00